BAW8648 HEAX-LGAV
Flight info
| Callsign | BAW8648 |
|---|---|
| Flight time | 1h 25m |
| Altitude | 36000 |
| Route | NOZ1B NOZ L551 ANTAR UN133 KPC UN137 RIPLI UL995 VARIX VARIX1W |
| Aircraft | A320/M-SDE3FGIJ1KRWXY/SB1 |
Departure
| Time | 2026-05-06 15:57 |
|---|---|
| Airport | Alexandria International Airport (HEAX) |
Arrival
| Time | 2026-05-06 17:23 |
|---|---|
| Airport | Athens Eleftherios Venizelos International Airport (LGAV) |
| Time | Latitude | Longitude | Altitude | Speed | Heading |
|---|---|---|---|---|---|
| 2026-05-06 15:27 | 30.93204 | 29.69548 | 170 ft | 0 kts | 53° |
| 2026-05-06 15:42 | 30.93199 | 29.69539 | 170 ft | 4 kts | 54° |
| 2026-05-06 15:43 | 30.93185 | 29.69518 | 170 ft | 2 kts | 54° |
| 2026-05-06 15:43 | 30.93172 | 29.69492 | 170 ft | 4 kts | 68° |
| 2026-05-06 15:43 | 30.93165 | 29.69462 | 170 ft | 4 kts | 88° |
| 2026-05-06 15:43 | 30.93168 | 29.69432 | 170 ft | 4 kts | 116° |
| 2026-05-06 15:44 | 30.93183 | 29.69410 | 170 ft | 4 kts | 143° |
| 2026-05-06 15:44 | 30.93197 | 29.69398 | 170 ft | 0 kts | 143° |
| 2026-05-06 15:47 | 30.93196 | 29.69399 | 170 ft | 1 kts | 143° |
| 2026-05-06 15:47 | 30.93187 | 29.69407 | 170 ft | 3 kts | 143° |
| 2026-05-06 15:47 | 30.93166 | 29.69426 | 170 ft | 5 kts | 143° |
| 2026-05-06 15:47 | 30.93127 | 29.69460 | 170 ft | 9 kts | 143° |
| 2026-05-06 15:48 | 30.93069 | 29.69510 | 170 ft | 11 kts | 143° |
| 2026-05-06 15:48 | 30.93001 | 29.69571 | 170 ft | 13 kts | 143° |
| 2026-05-06 15:48 | 30.92942 | 29.69621 | 169 ft | 8 kts | 147° |
| 2026-05-06 15:48 | 30.92898 | 29.69623 | 166 ft | 5 kts | 201° |
| 2026-05-06 15:49 | 30.92867 | 29.69591 | 168 ft | 9 kts | 227° |
| 2026-05-06 15:49 | 30.92818 | 29.69535 | 171 ft | 10 kts | 200° |
| 2026-05-06 15:49 | 30.92770 | 29.69557 | 176 ft | 5 kts | 143° |
| 2026-05-06 15:49 | 30.92753 | 29.69572 | 179 ft | 3 kts | 143° |
| 2026-05-06 15:50 | 30.92720 | 29.69602 | 180 ft | 9 kts | 142° |
| 2026-05-06 15:50 | 30.92658 | 29.69657 | 182 ft | 14 kts | 142° |
| 2026-05-06 15:50 | 30.92566 | 29.69739 | 175 ft | 19 kts | 143° |
| 2026-05-06 15:50 | 30.92459 | 29.69835 | 188 ft | 20 kts | 142° |
| 2026-05-06 15:51 | 30.92346 | 29.69933 | 193 ft | 21 kts | 144° |
| 2026-05-06 15:51 | 30.92225 | 29.70037 | 190 ft | 22 kts | 143° |
| 2026-05-06 15:51 | 30.92099 | 29.70145 | 195 ft | 23 kts | 143° |
| 2026-05-06 15:51 | 30.91964 | 29.70264 | 194 ft | 26 kts | 142° |
| 2026-05-06 15:52 | 30.91816 | 29.70394 | 200 ft | 27 kts | 143° |
| 2026-05-06 15:52 | 30.91665 | 29.70528 | 183 ft | 23 kts | 143° |
| 2026-05-06 15:52 | 30.91535 | 29.70642 | 177 ft | 26 kts | 143° |
| 2026-05-06 15:52 | 30.91380 | 29.70779 | 170 ft | 30 kts | 142° |
| 2026-05-06 15:53 | 30.91244 | 29.70899 | 165 ft | 23 kts | 142° |
| 2026-05-06 15:53 | 30.91112 | 29.71017 | 162 ft | 25 kts | 143° |
| 2026-05-06 15:53 | 30.90993 | 29.71123 | 160 ft | 20 kts | 144° |
| 2026-05-06 15:53 | 30.90905 | 29.71144 | 162 ft | 11 kts | 225° |
| 2026-05-06 15:54 | 30.90867 | 29.71091 | 167 ft | 9 kts | 230° |
| 2026-05-06 15:54 | 30.90804 | 29.71000 | 174 ft | 18 kts | 232° |
| 2026-05-06 15:54 | 30.90731 | 29.70887 | 182 ft | 16 kts | 234° |
| 2026-05-06 15:54 | 30.90678 | 29.70784 | 197 ft | 13 kts | 243° |
| 2026-05-06 15:55 | 30.90660 | 29.70742 | 184 ft | 0 kts | 243° |
| 2026-05-06 15:56 | 30.90645 | 29.70708 | 184 ft | 10 kts | 243° |
| 2026-05-06 15:56 | 30.90629 | 29.70617 | 182 ft | 13 kts | 298° |
| 2026-05-06 15:56 | 30.90718 | 29.70535 | 172 ft | 26 kts | 323° |
| 2026-05-06 15:57 | 30.91056 | 29.70240 | 182 ft | 93 kts | 323° |
| 2026-05-06 15:57 | 30.91714 | 29.69664 | 184 ft | 142 kts | 323° |
| 2026-05-06 15:57 | 30.92603 | 29.68889 | 368 ft | 167 kts | 323° |
| 2026-05-06 15:57 | 30.93552 | 29.68146 | 1046 ft | 164 kts | 332° |
| 2026-05-06 15:58 | 30.94605 | 29.67633 | 1694 ft | 163 kts | 339° |
| 2026-05-06 15:58 | 30.95677 | 29.67155 | 2226 ft | 166 kts | 339° |
| 2026-05-06 15:58 | 30.96776 | 29.66722 | 2756 ft | 169 kts | 357° |
| 2026-05-06 15:58 | 30.97854 | 29.67176 | 3328 ft | 169 kts | 42° |
| 2026-05-06 15:59 | 30.98509 | 29.68350 | 3780 ft | 181 kts | 66° |
| 2026-05-06 15:59 | 30.98983 | 29.69737 | 4221 ft | 188 kts | 66° |
| 2026-05-06 15:59 | 30.99482 | 29.71164 | 4710 ft | 193 kts | 66° |
| 2026-05-06 15:59 | 31.00010 | 29.72656 | 5088 ft | 206 kts | 66° |
| 2026-05-06 16:00 | 31.00581 | 29.74257 | 5451 ft | 223 kts | 66° |
| 2026-05-06 16:00 | 31.00986 | 29.75393 | 5726 ft | 235 kts | 66° |
| 2026-05-06 16:00 | 31.01641 | 29.77233 | 6117 ft | 257 kts | 66° |
| 2026-05-06 16:00 | 31.02350 | 29.79226 | 6655 ft | 271 kts | 65° |
| 2026-05-06 16:01 | 31.03367 | 29.81084 | 7397 ft | 276 kts | 44° |
| 2026-05-06 16:01 | 31.04856 | 29.82521 | 8134 ft | 280 kts | 36° |
| 2026-05-06 16:01 | 31.06411 | 29.83911 | 8942 ft | 283 kts | 36° |
| 2026-05-06 16:01 | 31.07985 | 29.85319 | 9695 ft | 287 kts | 37° |
| 2026-05-06 16:02 | 31.09582 | 29.86752 | 10392 ft | 294 kts | 36° |
| 2026-05-06 16:02 | 31.11266 | 29.88267 | 10609 ft | 317 kts | 37° |
| 2026-05-06 16:02 | 31.13076 | 29.89902 | 10801 ft | 339 kts | 37° |
| 2026-05-06 16:02 | 31.15001 | 29.91559 | 11295 ft | 347 kts | 30° |
| 2026-05-06 16:03 | 31.17218 | 29.92699 | 11910 ft | 350 kts | 14° |
| 2026-05-06 16:03 | 31.19632 | 29.93108 | 12529 ft | 353 kts | 359° |
| 2026-05-06 16:03 | 31.22061 | 29.92743 | 13143 ft | 354 kts | 343° |
| 2026-05-06 16:03 | 31.24333 | 29.91624 | 13748 ft | 356 kts | 330° |
| 2026-05-06 16:04 | 31.26501 | 29.90258 | 14353 ft | 359 kts | 330° |
| 2026-05-06 16:04 | 31.28729 | 29.88853 | 14982 ft | 361 kts | 330° |
| 2026-05-06 16:04 | 31.30951 | 29.87459 | 15568 ft | 364 kts | 330° |
| 2026-05-06 16:04 | 31.33195 | 29.86055 | 16137 ft | 367 kts | 330° |
| 2026-05-06 16:05 | 31.35450 | 29.84645 | 16693 ft | 369 kts | 330° |
| 2026-05-06 16:05 | 31.37728 | 29.83221 | 17236 ft | 372 kts | 330° |
| 2026-05-06 16:05 | 31.39993 | 29.81803 | 17791 ft | 375 kts | 330° |
| 2026-05-06 16:05 | 31.42298 | 29.80359 | 18333 ft | 377 kts | 330° |
| 2026-05-06 16:06 | 31.44620 | 29.78906 | 18882 ft | 380 kts | 330° |
| 2026-05-06 16:06 | 31.46956 | 29.77440 | 19408 ft | 383 kts | 330° |
| 2026-05-06 16:06 | 31.49313 | 29.75961 | 19925 ft | 386 kts | 330° |
| 2026-05-06 16:06 | 31.51689 | 29.74471 | 20428 ft | 389 kts | 330° |
| 2026-05-06 16:07 | 31.54083 | 29.72968 | 20930 ft | 392 kts | 330° |
| 2026-05-06 16:07 | 31.56491 | 29.71453 | 21391 ft | 394 kts | 330° |
| 2026-05-06 16:07 | 31.58912 | 29.69926 | 21831 ft | 397 kts | 330° |
| 2026-05-06 16:07 | 31.61355 | 29.68386 | 22266 ft | 399 kts | 330° |
| 2026-05-06 16:08 | 31.63812 | 29.66841 | 22689 ft | 402 kts | 330° |
| 2026-05-06 16:08 | 31.66287 | 29.65286 | 23101 ft | 405 kts | 330° |
| 2026-05-06 16:08 | 31.68776 | 29.63717 | 23505 ft | 407 kts | 329° |
| 2026-05-06 16:08 | 31.71278 | 29.62134 | 23908 ft | 410 kts | 329° |
| 2026-05-06 16:09 | 31.73796 | 29.60538 | 24304 ft | 412 kts | 329° |
| 2026-05-06 16:09 | 31.76332 | 29.58931 | 24698 ft | 415 kts | 329° |
| 2026-05-06 16:09 | 31.78876 | 29.57320 | 25082 ft | 417 kts | 329° |
| 2026-05-06 16:09 | 31.81438 | 29.55699 | 25461 ft | 419 kts | 329° |
| 2026-05-06 16:10 | 31.84010 | 29.54072 | 25833 ft | 421 kts | 329° |
| 2026-05-06 16:10 | 31.86561 | 29.52458 | 26189 ft | 423 kts | 330° |
| 2026-05-06 16:10 | 31.89192 | 29.50793 | 26533 ft | 425 kts | 330° |
| 2026-05-06 16:10 | 31.91803 | 29.49138 | 26890 ft | 427 kts | 330° |
| 2026-05-06 16:11 | 31.94388 | 29.47497 | 27246 ft | 429 kts | 330° |
| 2026-05-06 16:11 | 31.97023 | 29.45822 | 27575 ft | 431 kts | 329° |
| 2026-05-06 16:11 | 31.99665 | 29.44138 | 27914 ft | 433 kts | 330° |
| 2026-05-06 16:11 | 32.02325 | 29.42444 | 28244 ft | 435 kts | 330° |
| 2026-05-06 16:12 | 32.04992 | 29.40746 | 28591 ft | 437 kts | 330° |
| 2026-05-06 16:12 | 32.07669 | 29.39041 | 28916 ft | 438 kts | 330° |
| 2026-05-06 16:12 | 32.10358 | 29.37331 | 29259 ft | 439 kts | 330° |
| 2026-05-06 16:12 | 32.13039 | 29.35623 | 29706 ft | 437 kts | 330° |
| 2026-05-06 16:13 | 32.15713 | 29.33918 | 30146 ft | 436 kts | 330° |
| 2026-05-06 16:13 | 32.18374 | 29.32219 | 30577 ft | 434 kts | 330° |
| 2026-05-06 16:13 | 32.21035 | 29.30519 | 30992 ft | 433 kts | 330° |
| 2026-05-06 16:13 | 32.23683 | 29.28825 | 31433 ft | 432 kts | 330° |
| 2026-05-06 16:14 | 32.26322 | 29.27135 | 31837 ft | 431 kts | 329° |
| 2026-05-06 16:14 | 32.28954 | 29.25448 | 32248 ft | 430 kts | 329° |
| 2026-05-06 16:14 | 32.31577 | 29.23766 | 32657 ft | 428 kts | 329° |
| 2026-05-06 16:14 | 32.34197 | 29.22084 | 33064 ft | 427 kts | 329° |
| 2026-05-06 16:15 | 32.36802 | 29.20407 | 33468 ft | 426 kts | 329° |
| 2026-05-06 16:15 | 32.39371 | 29.18756 | 33857 ft | 425 kts | 329° |
| 2026-05-06 16:15 | 32.41966 | 29.17089 | 34246 ft | 424 kts | 329° |
| 2026-05-06 16:15 | 32.44552 | 29.15429 | 34600 ft | 422 kts | 329° |
| 2026-05-06 16:16 | 32.47133 | 29.13768 | 34914 ft | 422 kts | 329° |
| 2026-05-06 16:16 | 32.49711 | 29.12103 | 35211 ft | 422 kts | 329° |
| 2026-05-06 16:16 | 32.52293 | 29.10435 | 35504 ft | 422 kts | 329° |
| 2026-05-06 16:16 | 32.54870 | 29.08768 | 35806 ft | 422 kts | 329° |
| 2026-05-06 16:17 | 32.57449 | 29.07099 | 36046 ft | 422 kts | 329° |
| 2026-05-06 16:17 | 32.60037 | 29.05427 | 36107 ft | 426 kts | 329° |
| 2026-05-06 16:17 | 32.65296 | 29.02024 | 36123 ft | 433 kts | 329° |
| 2026-05-06 16:18 | 32.70592 | 28.98597 | 36119 ft | 434 kts | 329° |
| 2026-05-06 16:18 | 32.75885 | 28.95162 | 36116 ft | 434 kts | 329° |
| 2026-05-06 16:19 | 32.81183 | 28.91726 | 36117 ft | 434 kts | 329° |
| 2026-05-06 16:19 | 32.86448 | 28.88307 | 36124 ft | 434 kts | 329° |
| 2026-05-06 16:20 | 32.91746 | 28.84860 | 36124 ft | 434 kts | 329° |
| 2026-05-06 16:20 | 32.97048 | 28.81399 | 36127 ft | 434 kts | 329° |
| 2026-05-06 16:21 | 33.02347 | 28.77944 | 36120 ft | 434 kts | 329° |
| 2026-05-06 16:21 | 33.07645 | 28.74475 | 36127 ft | 434 kts | 329° |
| 2026-05-06 16:22 | 33.12943 | 28.71004 | 36126 ft | 434 kts | 329° |
| 2026-05-06 16:22 | 33.18233 | 28.67531 | 36131 ft | 434 kts | 329° |
| 2026-05-06 16:23 | 33.23528 | 28.64056 | 36133 ft | 434 kts | 329° |
| 2026-05-06 16:23 | 33.28822 | 28.60583 | 36132 ft | 434 kts | 329° |
| 2026-05-06 16:24 | 33.34084 | 28.57112 | 36134 ft | 434 kts | 329° |
| 2026-05-06 16:24 | 33.39366 | 28.53620 | 36124 ft | 434 kts | 329° |
| 2026-05-06 16:25 | 33.44656 | 28.50131 | 36129 ft | 434 kts | 329° |
| 2026-05-06 16:25 | 33.49942 | 28.46636 | 36134 ft | 433 kts | 329° |
| 2026-05-06 16:26 | 33.55222 | 28.43139 | 36127 ft | 433 kts | 329° |
| 2026-05-06 16:26 | 33.60498 | 28.39644 | 36132 ft | 433 kts | 329° |
| 2026-05-06 16:27 | 33.65770 | 28.36142 | 36130 ft | 433 kts | 329° |
| 2026-05-06 16:27 | 33.71043 | 28.32633 | 36130 ft | 433 kts | 329° |
| 2026-05-06 16:28 | 33.76272 | 28.29152 | 36129 ft | 432 kts | 329° |
| 2026-05-06 16:28 | 33.81534 | 28.25638 | 36131 ft | 432 kts | 329° |
| 2026-05-06 16:29 | 33.86784 | 28.22101 | 36129 ft | 432 kts | 329° |
| 2026-05-06 16:29 | 33.92029 | 28.18553 | 36118 ft | 432 kts | 329° |
| 2026-05-06 16:30 | 33.96389 | 28.15598 | 36119 ft | 432 kts | 328° |
| 2026-05-06 16:30 | 34.02512 | 28.11448 | 36122 ft | 432 kts | 329° |
| 2026-05-06 16:31 | 34.07757 | 28.07899 | 36121 ft | 432 kts | 329° |
| 2026-05-06 16:31 | 34.12994 | 28.04343 | 36115 ft | 432 kts | 329° |
| 2026-05-06 16:32 | 34.18228 | 28.00784 | 36109 ft | 432 kts | 328° |
| 2026-05-06 16:32 | 34.23429 | 27.97245 | 36112 ft | 432 kts | 328° |
| 2026-05-06 16:33 | 34.28661 | 27.93673 | 36111 ft | 432 kts | 328° |
| 2026-05-06 16:34 | 34.36513 | 27.88305 | 36114 ft | 432 kts | 329° |
| 2026-05-06 16:34 | 34.41746 | 27.84727 | 36116 ft | 432 kts | 328° |
| 2026-05-06 16:35 | 34.46972 | 27.81142 | 36113 ft | 432 kts | 328° |
| 2026-05-06 16:35 | 34.52184 | 27.77551 | 36108 ft | 431 kts | 328° |
| 2026-05-06 16:36 | 34.57404 | 27.73952 | 36105 ft | 431 kts | 328° |
| 2026-05-06 16:36 | 34.62615 | 27.70350 | 36104 ft | 431 kts | 328° |
| 2026-05-06 16:37 | 34.67822 | 27.66744 | 36104 ft | 431 kts | 328° |
| 2026-05-06 16:37 | 34.73026 | 27.63136 | 36104 ft | 430 kts | 328° |
| 2026-05-06 16:38 | 34.78235 | 27.59525 | 36104 ft | 430 kts | 328° |
| 2026-05-06 16:38 | 34.83424 | 27.55920 | 36103 ft | 430 kts | 328° |
| 2026-05-06 16:39 | 34.88620 | 27.52303 | 36102 ft | 430 kts | 328° |
| 2026-05-06 16:39 | 34.93808 | 27.48688 | 36101 ft | 430 kts | 328° |
| 2026-05-06 16:40 | 34.99003 | 27.45063 | 36103 ft | 429 kts | 328° |
| 2026-05-06 16:40 | 35.04151 | 27.41469 | 36103 ft | 429 kts | 328° |
| 2026-05-06 16:41 | 35.09326 | 27.37839 | 36102 ft | 429 kts | 328° |
| 2026-05-06 16:41 | 35.14495 | 27.34200 | 36102 ft | 429 kts | 328° |
| 2026-05-06 16:42 | 35.19665 | 27.30565 | 36102 ft | 428 kts | 328° |
| 2026-05-06 16:42 | 35.24831 | 27.26937 | 36104 ft | 428 kts | 328° |
| 2026-05-06 16:43 | 35.29997 | 27.23299 | 36103 ft | 428 kts | 328° |
| 2026-05-06 16:43 | 35.35160 | 27.19656 | 36099 ft | 428 kts | 328° |
| 2026-05-06 16:44 | 35.40311 | 27.16009 | 36100 ft | 428 kts | 328° |
| 2026-05-06 16:44 | 35.45397 | 27.12312 | 36102 ft | 428 kts | 326° |
| 2026-05-06 16:45 | 35.50392 | 27.08361 | 36101 ft | 427 kts | 325° |
| 2026-05-06 16:45 | 35.55356 | 27.04358 | 36101 ft | 427 kts | 325° |
| 2026-05-06 16:46 | 35.60343 | 27.00403 | 36101 ft | 427 kts | 326° |
| 2026-05-06 16:46 | 35.65344 | 26.96463 | 36103 ft | 427 kts | 326° |
| 2026-05-06 16:47 | 35.70345 | 26.92524 | 36103 ft | 427 kts | 326° |
| 2026-05-06 16:47 | 35.75346 | 26.88583 | 36103 ft | 427 kts | 326° |
| 2026-05-06 16:48 | 35.80348 | 26.84628 | 36102 ft | 427 kts | 326° |
| 2026-05-06 16:48 | 35.85336 | 26.80666 | 36102 ft | 427 kts | 326° |
| 2026-05-06 16:49 | 35.90325 | 26.76700 | 36102 ft | 427 kts | 326° |
| 2026-05-06 16:49 | 35.95310 | 26.72725 | 36106 ft | 427 kts | 326° |
| 2026-05-06 16:50 | 35.99455 | 26.69397 | 36109 ft | 427 kts | 326° |
| 2026-05-06 16:50 | 36.04436 | 26.65399 | 36111 ft | 427 kts | 326° |
| 2026-05-06 16:51 | 36.09415 | 26.61404 | 36107 ft | 426 kts | 326° |
| 2026-05-06 16:51 | 36.14387 | 26.57406 | 36109 ft | 426 kts | 326° |
| 2026-05-06 16:52 | 36.19354 | 26.53408 | 36109 ft | 426 kts | 326° |
| 2026-05-06 16:52 | 36.24320 | 26.49404 | 36108 ft | 426 kts | 326° |
| 2026-05-06 16:53 | 36.29283 | 26.45395 | 36108 ft | 426 kts | 326° |
| 2026-05-06 16:53 | 36.34246 | 26.41388 | 36109 ft | 426 kts | 326° |
| 2026-05-06 16:54 | 36.39205 | 26.37374 | 36110 ft | 426 kts | 326° |
| 2026-05-06 16:54 | 36.44124 | 26.33374 | 36105 ft | 425 kts | 326° |
| 2026-05-06 16:55 | 36.49080 | 26.29341 | 36101 ft | 425 kts | 326° |
| 2026-05-06 16:55 | 36.54032 | 26.25307 | 36099 ft | 426 kts | 326° |
| 2026-05-06 16:56 | 36.58645 | 26.20726 | 36097 ft | 424 kts | 315° |
| 2026-05-06 16:56 | 36.62874 | 26.15612 | 36096 ft | 424 kts | 315° |
| 2026-05-06 16:57 | 36.67111 | 26.10490 | 36098 ft | 424 kts | 315° |
| 2026-05-06 16:57 | 36.71313 | 26.05392 | 36099 ft | 424 kts | 315° |
| 2026-05-06 16:58 | 36.75541 | 26.00260 | 36099 ft | 424 kts | 315° |
| 2026-05-06 16:58 | 36.79766 | 25.95111 | 36097 ft | 425 kts | 315° |
| 2026-05-06 16:59 | 36.83989 | 25.89956 | 36097 ft | 424 kts | 315° |
| 2026-05-06 16:59 | 36.88211 | 25.84807 | 36094 ft | 424 kts | 315° |
| 2026-05-06 17:00 | 36.92433 | 25.79656 | 36095 ft | 424 kts | 315° |
| 2026-05-06 17:00 | 36.96650 | 25.74478 | 36097 ft | 425 kts | 315° |
| 2026-05-06 17:01 | 37.00868 | 25.69291 | 36099 ft | 425 kts | 315° |
| 2026-05-06 17:01 | 37.05089 | 25.64110 | 36100 ft | 425 kts | 315° |
| 2026-05-06 17:02 | 37.09313 | 25.58923 | 35935 ft | 425 kts | 315° |
| 2026-05-06 17:02 | 37.11420 | 25.56329 | 35685 ft | 424 kts | 315° |
| 2026-05-06 17:02 | 37.13526 | 25.53732 | 35347 ft | 424 kts | 315° |
| 2026-05-06 17:02 | 37.15611 | 25.51155 | 34603 ft | 428 kts | 315° |
| 2026-05-06 17:03 | 37.17742 | 25.48518 | 33805 ft | 432 kts | 315° |
| 2026-05-06 17:03 | 37.19893 | 25.45860 | 32941 ft | 436 kts | 315° |
| 2026-05-06 17:03 | 37.22065 | 25.43173 | 32029 ft | 441 kts | 315° |
| 2026-05-06 17:03 | 37.24231 | 25.40479 | 31483 ft | 436 kts | 315° |
| 2026-05-06 17:04 | 37.26257 | 25.37667 | 30878 ft | 433 kts | 307° |
| 2026-05-06 17:04 | 37.27860 | 25.34487 | 30289 ft | 430 kts | 297° |
| 2026-05-06 17:04 | 37.29005 | 25.31034 | 29693 ft | 428 kts | 290° |
| 2026-05-06 17:04 | 37.29950 | 25.27502 | 29089 ft | 425 kts | 290° |
| 2026-05-06 17:05 | 37.30887 | 25.24003 | 28493 ft | 421 kts | 290° |
| 2026-05-06 17:05 | 37.31819 | 25.20531 | 27908 ft | 418 kts | 290° |
| 2026-05-06 17:05 | 37.32745 | 25.17082 | 27326 ft | 415 kts | 290° |
| 2026-05-06 17:05 | 37.33660 | 25.13664 | 26739 ft | 411 kts | 290° |
| 2026-05-06 17:06 | 37.34564 | 25.10270 | 26179 ft | 408 kts | 290° |
| 2026-05-06 17:06 | 37.35567 | 25.06962 | 25619 ft | 403 kts | 297° |
| 2026-05-06 17:06 | 37.37024 | 25.03990 | 25089 ft | 397 kts | 308° |
| 2026-05-06 17:06 | 37.38866 | 25.01497 | 24574 ft | 393 kts | 319° |
| 2026-05-06 17:07 | 37.41045 | 24.99463 | 24082 ft | 389 kts | 326° |
| 2026-05-06 17:07 | 37.43279 | 24.97571 | 23591 ft | 385 kts | 326° |
| 2026-05-06 17:07 | 37.45490 | 24.95698 | 23115 ft | 382 kts | 326° |
| 2026-05-06 17:07 | 37.47685 | 24.93837 | 22645 ft | 379 kts | 326° |
| 2026-05-06 17:08 | 37.49867 | 24.91988 | 22169 ft | 376 kts | 326° |
| 2026-05-06 17:08 | 37.52026 | 24.90152 | 21690 ft | 373 kts | 326° |
| 2026-05-06 17:08 | 37.54168 | 24.88329 | 21221 ft | 370 kts | 326° |
| 2026-05-06 17:08 | 37.56291 | 24.86518 | 20740 ft | 367 kts | 326° |
| 2026-05-06 17:09 | 37.58398 | 24.84715 | 20254 ft | 365 kts | 326° |
| 2026-05-06 17:09 | 37.60490 | 24.82923 | 19753 ft | 362 kts | 326° |
| 2026-05-06 17:09 | 37.62566 | 24.81148 | 19259 ft | 359 kts | 326° |
| 2026-05-06 17:09 | 37.64631 | 24.79387 | 18754 ft | 357 kts | 326° |
| 2026-05-06 17:10 | 37.66683 | 24.77635 | 18247 ft | 355 kts | 326° |
| 2026-05-06 17:10 | 37.68722 | 24.75893 | 17738 ft | 352 kts | 326° |
| 2026-05-06 17:10 | 37.70743 | 24.74165 | 17232 ft | 350 kts | 326° |
| 2026-05-06 17:10 | 37.72759 | 24.72442 | 16729 ft | 348 kts | 326° |
| 2026-05-06 17:11 | 37.74758 | 24.70733 | 16222 ft | 346 kts | 326° |
| 2026-05-06 17:11 | 37.76720 | 24.69051 | 15729 ft | 344 kts | 326° |
| 2026-05-06 17:11 | 37.78695 | 24.67353 | 15232 ft | 342 kts | 326° |
| 2026-05-06 17:11 | 37.80654 | 24.65666 | 14737 ft | 340 kts | 326° |
| 2026-05-06 17:12 | 37.82601 | 24.63990 | 14243 ft | 338 kts | 326° |
| 2026-05-06 17:12 | 37.84537 | 24.62320 | 13750 ft | 336 kts | 326° |
| 2026-05-06 17:12 | 37.86466 | 24.60657 | 13264 ft | 334 kts | 326° |
| 2026-05-06 17:12 | 37.88387 | 24.59005 | 12772 ft | 333 kts | 326° |
| 2026-05-06 17:13 | 37.90300 | 24.57359 | 12293 ft | 332 kts | 326° |
| 2026-05-06 17:13 | 37.92204 | 24.55719 | 11814 ft | 330 kts | 326° |
| 2026-05-06 17:13 | 37.94096 | 24.54085 | 11335 ft | 329 kts | 326° |
| 2026-05-06 17:13 | 37.95980 | 24.52455 | 10864 ft | 328 kts | 326° |
| 2026-05-06 17:14 | 37.97857 | 24.50823 | 10415 ft | 326 kts | 323° |
| 2026-05-06 17:14 | 37.99479 | 24.48904 | 10280 ft | 314 kts | 310° |
| 2026-05-06 17:14 | 38.00667 | 24.46640 | 10151 ft | 304 kts | 299° |
| 2026-05-06 17:14 | 38.01677 | 24.44337 | 10016 ft | 294 kts | 300° |
| 2026-05-06 17:15 | 38.02666 | 24.42097 | 9816 ft | 288 kts | 300° |
| 2026-05-06 17:15 | 38.03660 | 24.39849 | 9333 ft | 293 kts | 300° |
| 2026-05-06 17:15 | 38.04649 | 24.37608 | 9050 ft | 290 kts | 300° |
| 2026-05-06 17:15 | 38.05632 | 24.35381 | 8698 ft | 289 kts | 300° |
| 2026-05-06 17:16 | 38.06611 | 24.33161 | 8361 ft | 288 kts | 300° |
| 2026-05-06 17:16 | 38.07588 | 24.30945 | 8030 ft | 286 kts | 300° |
| 2026-05-06 17:16 | 38.08556 | 24.28743 | 7706 ft | 285 kts | 299° |
| 2026-05-06 17:16 | 38.09497 | 24.26593 | 7161 ft | 281 kts | 299° |
| 2026-05-06 17:17 | 38.10443 | 24.24433 | 6561 ft | 279 kts | 299° |
| 2026-05-06 17:17 | 38.11384 | 24.22282 | 5883 ft | 279 kts | 299° |
| 2026-05-06 17:17 | 38.12331 | 24.20116 | 5136 ft | 282 kts | 299° |
| 2026-05-06 17:17 | 38.13255 | 24.17603 | 4662 ft | 269 kts | 281° |
| 2026-05-06 17:18 | 38.13254 | 24.15639 | 4662 ft | 251 kts | 257° |
| 2026-05-06 17:18 | 38.12509 | 24.13700 | 4512 ft | 243 kts | 229° |
| 2026-05-06 17:18 | 38.11242 | 24.12306 | 4252 ft | 240 kts | 217° |
| 2026-05-06 17:18 | 38.09894 | 24.11049 | 3941 ft | 240 kts | 217° |
| 2026-05-06 17:19 | 38.08567 | 24.09796 | 3633 ft | 233 kts | 217° |
| 2026-05-06 17:19 | 38.07307 | 24.08593 | 3321 ft | 223 kts | 217° |
| 2026-05-06 17:19 | 38.06085 | 24.07422 | 3065 ft | 219 kts | 217° |
| 2026-05-06 17:19 | 38.04900 | 24.06287 | 2762 ft | 208 kts | 217° |
| 2026-05-06 17:20 | 38.03793 | 24.05223 | 2472 ft | 189 kts | 218° |
| 2026-05-06 17:20 | 38.02790 | 24.04258 | 2281 ft | 175 kts | 217° |
| 2026-05-06 17:20 | 38.01852 | 24.03379 | 2038 ft | 162 kts | 217° |
| 2026-05-06 17:20 | 38.00987 | 24.02552 | 1832 ft | 151 kts | 217° |
| 2026-05-06 17:21 | 38.00170 | 24.01770 | 1586 ft | 144 kts | 217° |
| 2026-05-06 17:21 | 37.99374 | 24.01016 | 1379 ft | 142 kts | 217° |
| 2026-05-06 17:21 | 37.98589 | 24.00260 | 1200 ft | 141 kts | 218° |
| 2026-05-06 17:21 | 37.97805 | 23.99515 | 1035 ft | 142 kts | 217° |
| 2026-05-06 17:22 | 37.97019 | 23.98769 | 856 ft | 141 kts | 217° |
| 2026-05-06 17:22 | 37.96236 | 23.98021 | 656 ft | 141 kts | 218° |
| 2026-05-06 17:22 | 37.95456 | 23.97278 | 453 ft | 140 kts | 217° |
| 2026-05-06 17:22 | 37.94682 | 23.96540 | 301 ft | 133 kts | 217° |
| 2026-05-06 17:23 | 37.94060 | 23.95949 | 282 ft | 90 kts | 217° |
| 2026-05-06 17:23 | 37.93635 | 23.95544 | 281 ft | 65 kts | 217° |
| 2026-05-06 17:23 | 37.93329 | 23.95254 | 295 ft | 44 kts | 218° |
| 2026-05-06 17:23 | 37.93190 | 23.95070 | 296 ft | 24 kts | 239° |
| 2026-05-06 17:24 | 37.93130 | 23.94910 | 300 ft | 16 kts | 247° |
| 2026-05-06 17:24 | 37.93087 | 23.94781 | 300 ft | 16 kts | 247° |
| 2026-05-06 17:24 | 37.93060 | 23.94669 | 302 ft | 11 kts | 288° |
| 2026-05-06 17:24 | 37.93114 | 23.94596 | 303 ft | 12 kts | 340° |
| 2026-05-06 17:25 | 37.93192 | 23.94595 | 302 ft | 12 kts | 4° |
| 2026-05-06 17:25 | 37.93271 | 23.94645 | 301 ft | 14 kts | 36° |
| 2026-05-06 17:25 | 37.93357 | 23.94727 | 304 ft | 16 kts | 38° |
| 2026-05-06 17:25 | 37.93420 | 23.94769 | 301 ft | 5 kts | 332° |
| 2026-05-06 17:26 | 37.93444 | 23.94730 | 301 ft | 4 kts | 306° |
| 2026-05-06 17:26 | 37.93459 | 23.94704 | 301 ft | 4 kts | 307° |
| 2026-05-06 17:26 | 37.93468 | 23.94690 | 301 ft | 0 kts | 307° |